createdAt,value
2018-07-22T00:00:12.997Z,15.17
2018-07-22T00:02:46.647Z,17.47
2018-07-22T00:05:23.969Z,16.73
2018-07-22T00:07:58.972Z,16.70
2018-07-22T00:10:32.639Z,19.23
2018-07-22T00:13:06.458Z,18.70
2018-07-22T00:15:38.881Z,20.17
2018-07-22T00:18:12.340Z,19.53
2018-07-22T00:20:45.212Z,23.73
2018-07-22T00:23:17.831Z,20.03
2018-07-22T00:25:55.537Z,20.43
2018-07-22T00:28:29.064Z,21.77
2018-07-22T00:31:01.603Z,21.93
2018-07-22T00:33:35.213Z,20.27
2018-07-22T00:36:07.768Z,18.33
2018-07-22T00:38:41.561Z,17.60
2018-07-22T00:41:14.407Z,18.77
2018-07-22T00:43:48.724Z,18.33
2018-07-22T00:46:21.916Z,20.23
2018-07-22T00:48:57.999Z,20.83
2018-07-22T00:51:32.339Z,21.70
2018-07-22T00:54:05.968Z,18.97
2018-07-22T00:56:40.568Z,20.30
2018-07-22T00:59:14.667Z,19.17
2018-07-22T01:01:47.356Z,19.73
2018-07-22T01:04:21.103Z,19.37
2018-07-22T01:06:53.676Z,20.20
2018-07-22T01:09:25.978Z,23.10
2018-07-22T01:11:59.759Z,19.77
2018-07-22T01:14:34.572Z,20.73
2018-07-22T01:17:07.894Z,18.83
2018-07-22T01:19:41.245Z,22.50
2018-07-22T01:22:14.655Z,19.93
2018-07-22T01:24:48.859Z,20.80
2018-07-22T01:27:29.425Z,18.70
2018-07-22T01:30:10.631Z,21.10
2018-07-22T01:32:45.405Z,21.60
2018-07-22T01:35:19.800Z,19.77
2018-07-22T01:37:53.864Z,21.90
2018-07-22T01:40:27.348Z,23.37
2018-07-22T01:43:01.458Z,25.87
2018-07-22T01:45:34.982Z,23.13
2018-07-22T01:48:07.601Z,23.90
2018-07-22T01:50:41.360Z,21.93
2018-07-22T01:53:19.525Z,26.70
2018-07-22T01:55:54.765Z,23.83
2018-07-22T01:58:29.431Z,22.97
2018-07-22T02:01:02.124Z,25.20
2018-07-22T02:03:34.731Z,24.83
2018-07-22T02:06:10.767Z,24.90
2018-07-22T02:08:45.120Z,24.92
2018-07-22T02:11:18.696Z,24.42
2018-07-22T02:13:57.295Z,24.47
2018-07-22T02:16:29.854Z,27.97
2018-07-22T02:19:04.118Z,24.97
2018-07-22T02:21:37.200Z,27.83
2018-07-22T02:24:10.510Z,23.23
2018-07-22T02:26:43.040Z,30.00
2018-07-22T02:29:16.626Z,29.83
2018-07-22T02:31:49.792Z,28.33
2018-07-22T02:34:22.977Z,29.03
2018-07-22T02:36:57.460Z,27.08
2018-07-22T02:39:32.476Z,30.20
2018-07-22T02:42:07.669Z,29.83
2018-07-22T02:44:40.524Z,33.13
2018-07-22T02:47:17.143Z,34.10
2018-07-22T02:49:58.257Z,32.13
2018-07-22T02:52:30.717Z,33.60
2018-07-22T02:55:04.822Z,33.93
2018-07-22T02:57:40.420Z,35.17
2018-07-22T03:00:16.585Z,40.27
2018-07-22T03:02:49.889Z,36.73
2018-07-22T03:05:22.438Z,33.93
2018-07-22T03:07:56.240Z,33.77
2018-07-22T03:10:28.861Z,37.10
2018-07-22T03:13:04.482Z,33.03
2018-07-22T03:15:38.314Z,34.43
2018-07-22T03:18:14.622Z,32.67
2018-07-22T03:20:47.784Z,35.93
2018-07-22T03:23:26.962Z,29.27
2018-07-22T03:26:00.169Z,29.60
2018-07-22T03:28:33.909Z,28.37
2018-07-22T03:31:14.964Z,29.73
2018-07-22T03:33:50.847Z,28.90
2018-07-22T03:36:25.729Z,34.87
2018-07-22T03:38:59.627Z,32.95
2018-07-22T03:41:35.816Z,29.33
2018-07-22T03:44:09.212Z,29.23
2018-07-22T03:46:43.922Z,25.60
2018-07-22T03:49:16.903Z,28.10
2018-07-22T03:51:49.789Z,28.58
2018-07-22T03:54:25.685Z,23.13
2018-07-22T03:56:58.842Z,20.47
2018-07-22T03:59:33.263Z,24.90
2018-07-22T04:02:08.392Z,23.97
2018-07-22T04:04:40.953Z,22.83
2018-07-22T04:07:14.063Z,24.93
2018-07-22T04:09:54.195Z,32.77
2018-07-22T04:12:27.470Z,36.27
2018-07-22T04:15:03.129Z,37.27
2018-07-22T04:17:37.591Z,34.57
2018-07-22T04:20:12.956Z,34.07
2018-07-22T04:22:45.999Z,36.07
2018-07-22T04:25:19.738Z,40.50
2018-07-22T04:27:54.924Z,35.50
2018-07-22T04:30:29.541Z,32.33
2018-07-22T04:33:02.970Z,29.20
2018-07-22T04:35:36.567Z,32.55
2018-07-22T04:38:09.389Z,32.30
2018-07-22T04:40:41.911Z,34.60
2018-07-22T04:43:16.924Z,35.60
2018-07-22T04:45:50.652Z,34.00
2018-07-22T04:48:23.992Z,31.73
2018-07-22T04:50:57.523Z,35.93
2018-07-22T04:53:31.730Z,37.03
2018-07-22T04:56:06.408Z,37.07
2018-07-22T04:58:38.816Z,33.20
2018-07-22T05:01:15.584Z,34.33
2018-07-22T05:03:48.846Z,35.40
2018-07-22T05:06:24.177Z,35.27
2018-07-22T05:08:56.978Z,36.60
2018-07-22T05:11:29.532Z,33.65
2018-07-22T05:14:04.680Z,32.10
2018-07-22T05:16:39.109Z,32.17
2018-07-22T05:19:13.270Z,32.17
2018-07-22T05:21:45.667Z,32.67
2018-07-22T05:24:19.507Z,32.60
2018-07-22T05:26:55.127Z,31.17
2018-07-22T05:29:28.162Z,35.00
2018-07-22T05:32:01.972Z,32.65
2018-07-22T05:34:35.418Z,36.63
2018-07-22T05:37:08.588Z,37.50
2018-07-22T05:39:41.700Z,38.87
2018-07-22T05:42:15.864Z,32.30
2018-07-22T05:44:48.744Z,37.63
2018-07-22T05:47:21.997Z,34.08
2018-07-22T05:49:55.028Z,34.67
2018-07-22T05:52:27.552Z,30.43
2018-07-22T05:55:01.296Z,33.78
2018-07-22T05:57:35.463Z,31.77
2018-07-22T06:00:08.341Z,32.37
2018-07-22T06:02:42.500Z,36.77
2018-07-22T06:05:17.260Z,32.07
2018-07-22T06:07:50.612Z,36.47
2018-07-22T06:10:24.429Z,34.20
2018-07-22T06:13:02.781Z,34.37
2018-07-22T06:15:48.793Z,34.37
2018-07-22T06:18:31.225Z,32.33
2018-07-22T06:21:13.955Z,32.77
2018-07-22T06:24:01.759Z,34.87
2018-07-22T06:26:38.733Z,33.87
2018-07-22T06:29:14.904Z,33.00
2018-07-22T06:31:57.891Z,32.87
2018-07-22T06:34:31.006Z,35.63
2018-07-22T06:37:06.348Z,35.87
2018-07-22T06:39:44.495Z,31.37
2018-07-22T06:42:20.164Z,32.03
2018-07-22T06:44:56.070Z,29.67
2018-07-22T06:47:28.584Z,30.98
2018-07-22T06:50:03.342Z,33.80
2018-07-22T06:52:36.909Z,31.90
2018-07-22T06:55:11.008Z,32.13
2018-07-22T06:57:44.525Z,30.60
2018-07-22T07:00:19.428Z,28.10
2018-07-22T07:02:52.831Z,28.23
2018-07-22T07:05:25.931Z,30.20
2018-07-22T07:07:59.853Z,33.20
2018-07-22T07:10:33.932Z,29.02
2018-07-22T07:13:06.660Z,27.50
2018-07-22T07:15:40.686Z,31.93
2018-07-22T07:18:14.555Z,32.23
2018-07-22T07:20:48.021Z,28.93
2018-07-22T07:23:21.854Z,27.20
2018-07-22T07:25:55.793Z,27.37
2018-07-22T07:28:29.978Z,28.67
2018-07-22T07:31:06.385Z,26.50
2018-07-22T07:33:41.786Z,27.27
2018-07-22T07:36:15.172Z,26.83
2018-07-22T07:38:50.248Z,23.50
2018-07-22T07:41:29.968Z,27.37
2018-07-22T07:44:06.213Z,25.03
2018-07-22T07:46:39.877Z,26.23
2018-07-22T07:49:14.753Z,24.47
2018-07-22T07:51:49.116Z,21.13
2018-07-22T07:54:22.653Z,20.58
2018-07-22T07:56:56.510Z,20.93
2018-07-22T07:59:30.177Z,21.00
2018-07-22T08:02:03.379Z,22.33
2018-07-22T08:04:38.713Z,20.50
2018-07-22T08:07:11.337Z,20.77
2018-07-22T08:09:46.804Z,23.23
2018-07-22T08:12:21.621Z,21.47
2018-07-22T08:14:54.989Z,20.80
2018-07-22T08:17:27.801Z,19.17
2018-07-22T08:20:00.637Z,16.03
2018-07-22T08:22:35.112Z,20.53
2018-07-22T08:25:11.765Z,19.10
2018-07-22T08:27:44.266Z,17.98
2018-07-22T08:30:18.109Z,17.70
2018-07-22T08:32:52.857Z,15.37
2018-07-22T08:35:25.455Z,18.20
2018-07-22T08:37:59.052Z,15.47
2018-07-22T08:40:33.428Z,14.93
2018-07-22T08:43:08.240Z,17.17
2018-07-22T08:45:42.800Z,16.07
2018-07-22T08:48:17.426Z,19.33
2018-07-22T08:50:50.691Z,15.43
2018-07-22T08:53:26.372Z,16.87
2018-07-22T08:55:59.382Z,15.93
2018-07-22T08:58:32.855Z,13.53
2018-07-22T09:01:07.308Z,14.82
2018-07-22T09:03:40.439Z,13.47
2018-07-22T09:06:22.351Z,11.93
2018-07-22T09:08:57.371Z,12.57
2018-07-22T09:11:31.485Z,12.13
2018-07-22T09:14:04.809Z,10.97
2018-07-22T09:16:39.313Z,8.67
2018-07-22T09:19:13.179Z,10.53
2018-07-22T09:21:48.075Z,9.70
2018-07-22T09:24:20.917Z,9.60
2018-07-22T09:26:55.978Z,10.63
2018-07-22T09:29:28.834Z,11.90
2018-07-22T09:32:02.139Z,8.23
2018-07-22T09:34:36.968Z,13.23
2018-07-22T09:37:09.531Z,8.57
2018-07-22T09:39:43.867Z,9.93
2018-07-22T09:42:17.928Z,10.63
2018-07-22T09:44:54.125Z,9.83
2018-07-22T09:47:27.182Z,12.63
2018-07-22T09:50:00.666Z,7.77
2018-07-22T09:52:34.133Z,12.17
2018-07-22T09:55:07.947Z,10.87
2018-07-22T09:57:40.830Z,10.77
2018-07-22T10:00:21.644Z,7.60
2018-07-22T10:02:54.286Z,11.57
2018-07-22T10:05:29.808Z,8.90
2018-07-22T10:08:03.064Z,9.60
2018-07-22T10:10:40.289Z,9.47
2018-07-22T10:13:14.366Z,8.73
2018-07-22T10:15:48.365Z,7.10
2018-07-22T10:18:20.780Z,7.57
2018-07-22T10:20:54.419Z,8.43
2018-07-22T10:23:27.369Z,10.50
2018-07-22T10:26:00.705Z,8.00
2018-07-22T10:28:36.536Z,22.33
2018-07-22T10:31:14.091Z,16.30
2018-07-22T10:33:50.128Z,6.80
2018-07-22T10:36:23.484Z,5.90
2018-07-22T10:38:57.264Z,7.30
2018-07-22T10:41:29.846Z,7.40
2018-07-22T10:44:03.058Z,7.80
2018-07-22T10:46:35.992Z,6.60
2018-07-22T10:49:10.000Z,6.37
2018-07-22T10:51:45.317Z,6.77
2018-07-22T10:54:19.098Z,7.33
2018-07-22T10:56:51.871Z,7.30
2018-07-22T10:59:25.769Z,6.82
2018-07-22T11:01:59.512Z,7.93
2018-07-22T11:04:33.052Z,8.17
2018-07-22T11:07:06.755Z,6.80
2018-07-22T11:09:41.788Z,7.17
2018-07-22T11:12:19.036Z,8.10
2018-07-22T11:14:53.898Z,5.67
2018-07-22T11:17:27.701Z,7.70
2018-07-22T11:20:01.403Z,8.40
2018-07-22T11:22:37.257Z,10.03
2018-07-22T11:25:11.355Z,6.90
2018-07-22T11:27:45.085Z,6.00
2018-07-22T11:30:17.293Z,4.80
2018-07-22T11:32:53.557Z,8.30
2018-07-22T11:35:28.233Z,7.30
2018-07-22T11:38:01.901Z,4.67
2018-07-22T11:40:39.484Z,6.03
2018-07-22T11:43:15.409Z,6.03
2018-07-22T11:45:49.954Z,7.50
2018-07-22T11:48:23.881Z,5.37
2018-07-22T11:50:56.329Z,7.53
2018-07-22T11:53:31.972Z,5.50
2018-07-22T11:56:04.817Z,6.57
2018-07-22T11:58:37.953Z,7.33
2018-07-22T12:01:12.792Z,5.40
2018-07-22T12:03:45.820Z,6.70
2018-07-22T12:06:20.214Z,4.90
2018-07-22T12:08:56.237Z,5.27
2018-07-22T12:11:29.014Z,5.63
2018-07-22T12:14:02.167Z,5.07
2018-07-22T12:16:35.933Z,5.13
2018-07-22T12:19:09.440Z,5.10
2018-07-22T12:21:41.989Z,5.63
2018-07-22T12:24:16.741Z,5.23
2018-07-22T12:26:50.069Z,5.93
2018-07-22T12:29:29.582Z,5.40
2018-07-22T12:32:02.248Z,6.63
2018-07-22T12:34:35.964Z,5.20
2018-07-22T12:37:13.088Z,5.77
2018-07-22T12:39:47.421Z,4.60
2018-07-22T12:42:21.520Z,4.93
2018-07-22T12:44:54.846Z,5.63
2018-07-22T12:47:30.465Z,5.17
2018-07-22T12:50:03.821Z,4.80
2018-07-22T12:52:37.415Z,5.50
2018-07-22T12:55:10.052Z,4.53
2018-07-22T12:57:43.558Z,7.03
2018-07-22T13:00:18.969Z,6.40
2018-07-22T13:02:52.527Z,6.47
2018-07-22T13:05:27.394Z,5.60
2018-07-22T13:08:01.889Z,5.50
2018-07-22T13:10:34.915Z,6.80
2018-07-22T13:13:12.635Z,6.73
2018-07-22T13:15:46.530Z,6.47
2018-07-22T13:18:21.105Z,5.03
2018-07-22T13:20:55.636Z,7.60
2018-07-22T13:23:28.773Z,6.60
2018-07-22T13:26:02.283Z,7.83
2018-07-22T13:28:35.530Z,6.37
2018-07-22T13:31:08.306Z,6.60
2018-07-22T13:33:45.561Z,7.20
2018-07-22T13:36:18.476Z,5.20
2018-07-22T13:38:54.157Z,6.70
2018-07-22T13:41:30.047Z,5.73
2018-07-22T13:44:05.466Z,8.07
2018-07-22T13:46:39.112Z,5.70
2018-07-22T13:49:14.247Z,6.00
2018-07-22T13:51:46.856Z,6.77
2018-07-22T13:54:19.469Z,6.43
2018-07-22T13:56:54.328Z,5.80
2018-07-22T13:59:27.511Z,5.90
2018-07-22T14:02:01.075Z,6.23
2018-07-22T14:04:35.955Z,7.83
2018-07-22T14:07:13.679Z,6.80
2018-07-22T14:09:50.460Z,5.37
2018-07-22T14:12:26.415Z,5.80
2018-07-22T14:15:07.920Z,5.77
2018-07-22T14:17:44.102Z,5.00
2018-07-22T14:20:21.267Z,5.07
2018-07-22T14:22:54.651Z,5.80
2018-07-22T14:25:31.140Z,5.47
2018-07-22T14:28:08.130Z,5.40
2018-07-22T14:30:40.646Z,5.50
2018-07-22T14:33:14.004Z,5.13
2018-07-22T14:35:53.437Z,5.43
2018-07-22T14:38:27.503Z,5.83
2018-07-22T14:41:05.626Z,6.37
2018-07-22T14:43:39.259Z,5.93
2018-07-22T14:46:14.337Z,6.80
2018-07-22T14:48:47.999Z,4.77
2018-07-22T14:51:26.041Z,4.57
2018-07-22T14:54:00.571Z,5.70
2018-07-22T14:56:33.905Z,8.03
2018-07-22T14:59:07.831Z,4.67
2018-07-22T15:01:44.023Z,5.45
2018-07-22T15:04:18.294Z,5.97
2018-07-22T15:06:51.071Z,5.03
2018-07-22T15:09:23.868Z,5.23
2018-07-22T15:11:57.899Z,5.33
2018-07-22T15:14:31.277Z,5.27
2018-07-22T15:17:04.092Z,5.30
2018-07-22T15:19:39.703Z,5.73
2018-07-22T15:22:14.139Z,7.53
2018-07-22T15:24:47.646Z,5.83
2018-07-22T15:27:20.989Z,7.33
2018-07-22T15:29:53.609Z,6.70
2018-07-22T15:32:27.313Z,5.90
2018-07-22T15:35:02.480Z,7.50
2018-07-22T15:37:39.137Z,7.80
2018-07-22T15:40:12.593Z,5.90
2018-07-22T15:42:45.737Z,5.53
2018-07-22T15:45:21.129Z,6.77
2018-07-22T15:47:57.940Z,5.60
2018-07-22T15:50:32.476Z,6.83
2018-07-22T15:53:07.158Z,5.00
2018-07-22T15:55:40.532Z,5.93
2018-07-22T15:58:13.549Z,7.17
2018-07-22T16:00:48.338Z,5.10
2018-07-22T16:03:22.100Z,5.60
2018-07-22T16:05:59.313Z,6.03
2018-07-22T16:08:32.199Z,6.63
2018-07-22T16:11:06.435Z,6.07
2018-07-22T16:13:42.789Z,7.47
2018-07-22T16:16:18.268Z,8.43
2018-07-22T16:18:53.652Z,7.77
2018-07-22T16:21:29.917Z,5.87
2018-07-22T16:24:02.779Z,8.37
2018-07-22T16:26:37.213Z,7.57
2018-07-22T16:29:09.935Z,5.30
2018-07-22T16:31:42.638Z,5.87
2018-07-22T16:34:23.606Z,6.03
2018-07-22T16:36:57.064Z,6.27
2018-07-22T16:39:30.603Z,7.70
2018-07-22T16:42:06.221Z,7.47
2018-07-22T16:44:39.698Z,5.73
2018-07-22T16:47:12.255Z,7.37
2018-07-22T16:49:48.702Z,5.73
2018-07-22T16:52:21.993Z,6.67
2018-07-22T16:54:54.997Z,6.20
2018-07-22T16:57:29.484Z,5.93
2018-07-22T17:00:03.481Z,6.00
2018-07-22T17:02:35.968Z,9.10
2018-07-22T17:05:10.218Z,6.63
2018-07-22T17:07:47.368Z,5.73
2018-07-22T17:10:21.350Z,5.83
2018-07-22T17:12:56.571Z,6.00
2018-07-22T17:15:29.277Z,6.72
2018-07-22T17:18:01.869Z,8.30
2018-07-22T17:20:37.322Z,8.17
2018-07-22T17:23:11.208Z,7.00
2018-07-22T17:25:45.201Z,7.53
2018-07-22T17:28:17.889Z,6.27
2018-07-22T17:31:20.614Z,5.40
2018-07-22T17:33:57.540Z,5.43
2018-07-22T17:36:33.042Z,6.20
2018-07-22T17:39:15.184Z,6.87
2018-07-22T17:41:53.355Z,6.97
2018-07-22T17:44:28.029Z,6.27
2018-07-22T17:47:02.062Z,6.17
2018-07-22T17:49:42.970Z,6.90
2018-07-22T17:52:20.430Z,6.27
2018-07-22T17:54:56.384Z,6.63
2018-07-22T17:57:29.741Z,6.23
2018-07-22T18:00:04.878Z,7.27
2018-07-22T18:02:50.005Z,6.17
2018-07-22T18:05:27.750Z,6.63
2018-07-22T18:08:03.189Z,7.87
2018-07-22T18:10:36.144Z,6.83
2018-07-22T18:13:25.632Z,6.27
2018-07-22T18:15:59.308Z,7.27
2018-07-22T18:18:34.207Z,6.33
2018-07-22T18:21:11.223Z,6.40
2018-07-22T18:23:48.111Z,5.93
2018-07-22T18:26:22.892Z,7.23
2018-07-22T18:28:58.129Z,6.30
2018-07-22T18:31:35.478Z,5.87
2018-07-22T18:34:09.597Z,5.70
2018-07-22T18:36:47.114Z,6.73
2018-07-22T18:39:21.150Z,5.83
2018-07-22T18:41:53.699Z,8.47
2018-07-22T18:44:32.577Z,5.33
2018-07-22T18:47:06.387Z,6.10
2018-07-22T18:49:40.443Z,6.15
2018-07-22T18:52:14.895Z,5.63
2018-07-22T18:54:55.484Z,5.70
2018-07-22T18:57:30.344Z,7.53
2018-07-22T19:00:06.818Z,7.13
2018-07-22T19:02:41.321Z,7.60
2018-07-22T19:05:13.872Z,6.40
2018-07-22T19:07:50.681Z,7.27
2018-07-22T19:10:25.293Z,8.57
2018-07-22T19:13:02.927Z,6.97
2018-07-22T19:15:41.037Z,6.20
2018-07-22T19:18:19.640Z,7.03
2018-07-22T19:20:57.115Z,7.30
2018-07-22T19:23:31.264Z,6.03
2018-07-22T19:26:12.317Z,7.20
2018-07-22T19:28:46.881Z,5.37
2018-07-22T19:31:20.859Z,5.83
2018-07-22T19:33:57.587Z,5.97
2018-07-22T19:36:41.306Z,7.35
2018-07-22T19:39:16.312Z,5.67
2018-07-22T19:41:56.531Z,7.00
2018-07-22T19:44:32.667Z,7.18
2018-07-22T19:47:09.869Z,7.40
2018-07-22T19:49:45.105Z,8.77
2018-07-22T19:52:18.745Z,5.93
2018-07-22T19:54:54.354Z,6.17
2018-07-22T19:57:28.961Z,6.80
2018-07-22T20:00:05.044Z,8.07
2018-07-22T20:02:40.544Z,6.33
2018-07-22T20:05:15.516Z,7.40
2018-07-22T20:07:53.438Z,7.30
2018-07-22T20:10:30.158Z,8.00
2018-07-22T20:13:04.365Z,8.10
2018-07-22T20:15:38.905Z,8.38
2018-07-22T20:18:18.861Z,7.37
2018-07-22T20:20:53.965Z,8.40
2018-07-22T20:23:32.983Z,7.70
2018-07-22T20:26:14.293Z,7.67
2018-07-22T20:28:47.127Z,7.17
2018-07-22T20:31:35.098Z,7.10
2018-07-22T20:34:09.424Z,7.50
2018-07-22T20:36:44.880Z,8.93
2018-07-22T20:39:17.507Z,8.73
2018-07-22T20:41:50.555Z,10.50
2018-07-22T20:44:25.662Z,8.03
2018-07-22T20:46:59.846Z,10.27
2018-07-22T20:49:33.647Z,8.80
2018-07-22T20:52:07.925Z,7.70
2018-07-22T20:54:43.790Z,7.60
2018-07-22T20:57:19.881Z,10.00
2018-07-22T21:00:03.725Z,7.10
2018-07-22T21:02:37.594Z,8.33
2018-07-22T21:05:31.060Z,9.00
2018-07-22T21:08:06.687Z,6.80
2018-07-22T21:10:44.584Z,8.07
2018-07-22T21:13:29.363Z,8.20
2018-07-22T21:16:05.733Z,7.80
2018-07-22T21:18:42.874Z,9.47
2018-07-22T21:21:16.311Z,8.20
2018-07-22T21:23:48.964Z,6.83
2018-07-22T21:26:24.966Z,7.50
2018-07-22T21:29:11.069Z,9.70
2018-07-22T21:31:45.001Z,6.87
2018-07-22T21:34:23.056Z,8.83
2018-07-22T21:36:57.762Z,7.73
2018-07-22T21:39:30.965Z,9.17
2018-07-22T21:42:06.272Z,7.83
2018-07-22T21:44:41.685Z,8.27
2018-07-22T21:47:15.609Z,8.93
2018-07-22T21:49:49.408Z,8.57
2018-07-22T21:52:26.914Z,10.10
2018-07-22T21:55:01.835Z,7.35
2018-07-22T21:57:36.757Z,7.00
2018-07-22T22:00:31.274Z,5.50
2018-07-22T22:03:04.293Z,5.20
2018-07-22T22:05:43.568Z,5.70
2018-07-22T22:08:18.974Z,5.28
2018-07-22T22:10:52.750Z,5.23
2018-07-22T22:13:30.494Z,4.30
2018-07-22T22:16:02.954Z,5.00
2018-07-22T22:18:37.933Z,4.90
2018-07-22T22:21:11.976Z,6.27
2018-07-22T22:23:45.168Z,6.60
2018-07-22T22:26:18.671Z,5.17
2018-07-22T22:28:51.708Z,5.67
2018-07-22T22:31:24.603Z,5.10
2018-07-22T22:33:58.185Z,4.37
2018-07-22T22:36:31.225Z,4.63
2018-07-22T22:39:08.112Z,4.78
2018-07-22T22:41:43.419Z,4.83
2018-07-22T22:44:17.934Z,8.00
2018-07-22T22:46:50.815Z,5.20
2018-07-22T22:49:27.456Z,5.90
2018-07-22T22:52:02.015Z,5.80
2018-07-22T22:54:35.800Z,7.10
2018-07-22T22:57:09.248Z,8.57
2018-07-22T22:59:44.395Z,5.55
2018-07-22T23:02:19.559Z,5.93
2018-07-22T23:04:52.085Z,5.97
2018-07-22T23:07:26.786Z,6.77
2018-07-22T23:10:01.196Z,6.07
2018-07-22T23:12:33.725Z,5.50
2018-07-22T23:15:07.776Z,5.43
2018-07-22T23:17:42.572Z,7.33
2018-07-22T23:20:15.411Z,6.50
2018-07-22T23:22:48.916Z,6.40
2018-07-22T23:25:22.743Z,7.77
2018-07-22T23:27:55.347Z,6.13
2018-07-22T23:30:28.703Z,5.40
2018-07-22T23:33:03.155Z,5.77
2018-07-22T23:35:35.752Z,6.63
2018-07-22T23:38:08.409Z,5.17
2018-07-22T23:40:41.945Z,6.33
2018-07-22T23:43:14.800Z,5.53
2018-07-22T23:45:47.524Z,5.83
2018-07-22T23:48:20.516Z,6.50
2018-07-22T23:50:54.132Z,7.10
2018-07-22T23:53:26.576Z,6.47
2018-07-22T23:56:00.528Z,7.37
2018-07-22T23:58:33.871Z,7.80
